Time;durP1;ratioP1;P1;durP2;ratioP2;P2;SDS_P1;SDS_P2;PMS_P1;PMS_P2;Temp;Humidity;BMP_temperature;BMP_pressure;BME280_temperature;BME280_humidity;BME280_pressure;Samples;Min_cycle;Max_cycle;Signal;HPM_P1;HPM_P2
2023/09/26 00:02:22;;;;;;;;;;;;;;;;;;5073488;28;19978;-80
2023/09/26 00:04:47;;;;;;;;;;;;;;;;;;5074388;28;19916;-80
2023/09/26 00:07:12;;;;;;;;;;;;;;;;;;5052429;28;19947;-81
2023/09/26 00:09:38;;;;;;;;;;;;;;;;;;5059883;28;19916;-80
2023/09/26 00:12:03;;;;;;;;;;;;;;;;;;5054547;28;19912;-80
2023/09/26 00:14:29;;;;;;;;;;;;;;;;;;5075500;28;19931;-80
2023/09/26 00:16:54;;;;;;;;;;;;;;;;;;5059147;28;19975;-80
2023/09/26 00:19:19;;;;;;;;;;;;;;;;;;5071399;28;19939;-80
2023/09/26 00:21:47;;;;;;;;;;;;;;;;;;5074206;28;19916;-81
2023/09/26 00:24:12;;;;;;;;;;;;;;;;;;5067932;28;19978;-80
2023/09/26 00:26:37;;;;;;;;;;;;;;;;;;5069459;28;20406;-80
2023/09/26 00:29:02;;;;;;;;;;;;;;;;;;5072279;28;19916;-80
2023/09/26 00:31:28;;;;;;;;;;;;;;;;;;5073116;28;20413;-81
2023/09/26 00:33:53;;;;;;;;;;;;;;;;;;5059071;28;20264;-80
2023/09/26 00:36:19;;;;;;;;;;;;;;;;;;5072228;28;19923;-80
2023/09/26 00:38:44;;;;;;;;;;;;;;;;;;5074453;28;20005;-80
2023/09/26 00:41:10;;;;;;;;;;;;;;;;;;5054918;28;19947;-80
2023/09/26 00:43:35;;;;;;;;;;;;;;;;;;5074685;28;19957;-80
2023/09/26 00:46:01;;;;;;;;;;;;;;;;;;5090375;28;19920;-80
2023/09/26 00:48:26;;;;;;;;;;;;;;;;;;5092363;28;19961;-80
2023/09/26 00:50:51;;;;;;;;;;;;;;;;;;5046272;28;19951;-80
2023/09/26 00:53:17;;;;;;;;;;;;;;;;;;5074230;28;20307;-80
2023/09/26 00:55:43;;;;;;;;;;;;;;;;;;5069752;28;19927;-79
2023/09/26 00:58:08;;;;;;;;;;;;;;;;;;5073713;28;20006;-80
2023/09/26 01:00:33;;;;;;;;;;;;;;;;;;5075495;28;20022;-79
2023/09/26 01:02:59;;;;;;;;;;;;;;;;;;5054741;28;20002;-80
2023/09/26 01:05:24;;;;;;;;;;;;;;;;;;5066802;28;19966;-79
2023/09/26 01:07:51;;;;;;;;;;;;;;;;;;5075920;28;19954;-82
2023/09/26 01:10:17;;;;;;;;;;;;;;;;;;5049736;28;20387;-80
2023/09/26 01:12:42;;;;;;;;;;;;;;;;;;5074848;28;19917;-79
2023/09/26 01:15:08;;;;;;;;;;;;;;;;;;5061923;28;19916;-79
2023/09/26 01:17:34;;;;;;;;;;;;;;;;;;5050590;28;20352;-80
2023/09/26 01:20:21;;;;;;;;;;;;;;;;;;5071997;28;19978;-79
2023/09/26 01:22:45;;;;;;;;;;;;;;;;;;5088517;28;20306;-79
2023/09/26 01:25:10;;;;;;;;;;;;;;;;;;5050412;28;20007;-79
2023/09/26 01:27:36;;;;;;;;;;;;;;;;;;5072342;28;19930;-80
2023/09/26 01:30:01;;;;;;;;;;;;;;;;;;5067352;28;19920;-80
2023/09/26 01:32:26;;;;;;;;;;;;;;;;;;5067974;28;19917;-80
2023/09/26 01:34:52;;;;;;;;;;;;;;;;;;5076070;28;20014;-80
2023/09/26 01:37:20;;;;;;;;;;;;;;;;;;5069875;28;19923;-80
2023/09/26 01:39:45;;;;;;;;;;;;;;;;;;5082554;28;19923;-81
2023/09/26 01:42:10;;;;;;;;;;;;;;;;;;5070911;28;20391;-80
2023/09/26 01:44:36;;;;;;;;;;;;;;;;;;5082453;28;19912;-80
2023/09/26 01:47:01;;;;;;;;;;;;;;;;;;5081642;28;19927;-81
2023/09/26 01:49:27;;;;;;;;;;;;;;;;;;5049129;28;20379;-81
2023/09/26 01:51:53;;;;;;;;;;;;;;;;;;5048726;28;20387;-80
2023/09/26 01:54:18;;;;;;;;;;;;;;;;;;5083507;28;19912;-80
2023/09/26 01:56:44;;;;;;;;;;;;;;;;;;5070151;28;19917;-80
2023/09/26 01:59:09;;;;;;;;;;;;;;;;;;5066967;28;19912;-80
2023/09/26 02:01:34;;;;;;;;;;;;;;;;;;5061087;28;19920;-81
2023/09/26 02:04:00;;;;;;;;;;;;;;;;;;5079660;28;19912;-80
2023/09/26 02:06:25;;;;;;;;;;;;;;;;;;5082626;28;20302;-80
2023/09/26 02:08:50;;;;;;;;;;;;;;;;;;5059330;28;20648;-80
2023/09/26 02:11:16;;;;;;;;;;;;;;;;;;5040384;28;20432;-80
2023/09/26 02:13:41;;;;;;;;;;;;;;;;;;5074096;28;19916;-81
2023/09/26 02:16:07;;;;;;;;;;;;;;;;;;5073932;28;19917;-80
2023/09/26 02:18:32;;;;;;;;;;;;;;;;;;5061546;28;20006;-80
2023/09/26 02:20:57;;;;;;;;;;;;;;;;;;5076900;28;19921;-81
2023/09/26 02:23:24;;;;;;;;;;;;;;;;;;5070671;28;19912;-81
2023/09/26 02:25:53;;;;;;;;;;;;;;;;;;5065008;28;19916;-80
2023/09/26 02:28:18;;;;;;;;;;;;;;;;;;5073522;28;20012;-81
2023/09/26 02:30:44;;;;;;;;;;;;;;;;;;5076671;28;19967;-80
2023/09/26 02:33:09;;;;;;;;;;;;;;;;;;5059034;28;19962;-81
2023/09/26 02:35:34;;;;;;;;;;;;;;;;;;5065739;28;19916;-81
2023/09/26 02:38:00;;;;;;;;;;;;;;;;;;5050283;28;19920;-81
2023/09/26 02:40:26;;;;;;;;;;;;;;;;;;5077260;28;20282;-81
2023/09/26 02:42:51;;;;;;;;;;;;;;;;;;5079169;28;19913;-81
2023/09/26 02:45:17;;;;;;;;;;;;;;;;;;5077046;28;19917;-81
2023/09/26 02:47:42;;;;;;;;;;;;;;;;;;5076281;28;20665;-81
2023/09/26 02:50:07;;;;;;;;;;;;;;;;;;5071095;28;20292;-80
2023/09/26 02:52:33;;;;;;;;;;;;;;;;;;5081714;28;19931;-80
2023/09/26 02:54:58;;;;;;;;;;;;;;;;;;5077025;28;20002;-80
2023/09/26 02:57:24;;;;;;;;;;;;;;;;;;5051113;28;20006;-80
2023/09/26 02:59:49;;;;;;;;;;;;;;;;;;5067167;28;19946;-80
2023/09/26 03:02:15;;;;;;;;;;;;;;;;;;5079094;28;19912;-80
2023/09/26 03:04:40;;;;;;;;;;;;;;;;;;5082659;28;19967;-80
2023/09/26 03:07:05;;;;;;;;;;;;;;;;;;5063629;28;19998;-80
2023/09/26 03:09:31;;;;;;;;;;;;;;;;;;5074124;28;19967;-80
2023/09/26 03:11:56;;;;;;;;;;;;;;;;;;5073879;28;19913;-80
2023/09/26 03:14:21;;;;;;;;;;;;;;;;;;5074156;28;19924;-81
2023/09/26 03:16:47;;;;;;;;;;;;;;;;;;5069439;28;19948;-80
2023/09/26 03:19:12;;;;;;;;;;;;;;;;;;5073001;28;19954;-80
2023/09/26 03:21:37;;;;;;;;;;;;;;;;;;5061765;28;19974;-80
2023/09/26 03:24:03;;;;;;;;;;;;;;;;;;5058013;28;19920;-80
2023/09/26 03:26:28;;;;;;;;;;;;;;;;;;5068496;28;19913;-80
2023/09/26 03:28:53;;;;;;;;;;;;;;;;;;5068091;28;19921;-81
2023/09/26 03:31:20;;;;;;;;;;;;;;;;;;5068955;28;19951;-80
2023/09/26 03:33:45;;;;;;;;;;;;;;;;;;5067645;28;20358;-80
2023/09/26 03:36:11;;;;;;;;;;;;;;;;;;5067174;28;19916;-81
2023/09/26 03:38:36;;;;;;;;;;;;;;;;;;5062709;28;19916;-80
2023/09/26 03:41:01;;;;;;;;;;;;;;;;;;5085412;28;19916;-80
2023/09/26 03:43:27;;;;;;;;;;;;;;;;;;5069894;28;19923;-81
2023/09/26 03:45:52;;;;;;;;;;;;;;;;;;5085836;28;19916;-81
2023/09/26 03:48:18;;;;;;;;;;;;;;;;;;5084326;28;19966;-81
2023/09/26 03:50:46;;;;;;;;;;;;;;;;;;5052115;28;19923;-80
2023/09/26 03:53:11;;;;;;;;;;;;;;;;;;5062299;28;20017;-80
2023/09/26 03:55:37;;;;;;;;;;;;;;;;;;5081198;28;19912;-81
2023/09/26 03:58:02;;;;;;;;;;;;;;;;;;5077249;28;19916;-80
2023/09/26 04:00:28;;;;;;;;;;;;;;;;;;5082888;28;20023;-81
2023/09/26 04:02:56;;;;;;;;;;;;;;;;;;5055348;28;19951;-79
2023/09/26 04:05:21;;;;;;;;;;;;;;;;;;5079883;28;20019;-80
2023/09/26 04:07:46;;;;;;;;;;;;;;;;;;5077062;28;20007;-80
2023/09/26 04:10:12;;;;;;;;;;;;;;;;;;5073365;28;20394;-80
2023/09/26 04:12:37;;;;;;;;;;;;;;;;;;5072746;28;20420;-79
2023/09/26 04:15:02;;;;;;;;;;;;;;;;;;5074255;28;19982;-80
2023/09/26 04:17:29;;;;;;;;;;;;;;;;;;5064871;28;19947;-80
2023/09/26 04:19:54;;;;;;;;;;;;;;;;;;5070968;28;19966;-79
2023/09/26 04:22:19;;;;;;;;;;;;;;;;;;5075091;28;19917;-80
2023/09/26 04:24:45;;;;;;;;;;;;;;;;;;5067141;28;19913;-79
2023/09/26 04:27:10;;;;;;;;;;;;;;;;;;5079553;28;19970;-80
2023/09/26 04:29:35;;;;;;;;;;;;;;;;;;5056455;28;19920;-80
2023/09/26 04:32:01;;;;;;;;;;;;;;;;;;5067445;28;19920;-79
2023/09/26 04:34:27;;;;;;;;;;;;;;;;;;5084049;28;19919;-79
2023/09/26 04:36:53;;;;;;;;;;;;;;;;;;5079941;28;19916;-80
2023/09/26 04:39:18;;;;;;;;;;;;;;;;;;5077520;28;19919;-78
2023/09/26 04:41:45;;;;;;;;;;;;;;;;;;5076939;28;19927;-80
2023/09/26 04:44:10;;;;;;;;;;;;;;;;;;5084075;28;19950;-78
2023/09/26 04:46:36;;;;;;;;;;;;;;;;;;5067220;28;19920;-78
2023/09/26 04:49:01;;;;;;;;;;;;;;;;;;5083290;28;19912;-79
2023/09/26 04:51:27;;;;;;;;;;;;;;;;;;5081365;28;19943;-81
2023/09/26 04:53:52;;;;;;;;;;;;;;;;;;5081260;28;20359;-81
2023/09/26 04:56:18;;;;;;;;;;;;;;;;;;5067402;28;20005;-81
2023/09/26 04:58:43;;;;;;;;;;;;;;;;;;5070359;28;20580;-82
2023/09/26 05:01:08;;;;;;;;;;;;;;;;;;5080459;28;19920;-81
2023/09/26 05:03:34;;;;;;;;;;;;;;;;;;5085584;28;19912;-81
2023/09/26 05:05:59;;;;;;;;;;;;;;;;;;5083110;28;19966;-81
2023/09/26 05:08:24;;;;;;;;;;;;;;;;;;5074230;28;20030;-81
2023/09/26 05:10:50;;;;;;;;;;;;;;;;;;5072339;28;19917;-80
2023/09/26 05:13:15;;;;;;;;;;;;;;;;;;5078163;28;19966;-81
2023/09/26 05:15:40;;;;;;;;;;;;;;;;;;5078859;28;19921;-81
2023/09/26 05:18:06;;;;;;;;;;;;;;;;;;5078219;28;20322;-81
2023/09/26 05:20:31;;;;;;;;;;;;;;;;;;5077296;28;19924;-81
2023/09/26 05:22:58;;;;;;;;;;;;;;;;;;5057045;28;20013;-81
2023/09/26 05:25:24;;;;;;;;;;;;;;;;;;5055090;28;19917;-81
2023/09/26 05:27:49;;;;;;;;;;;;;;;;;;5057570;28;19929;-81
2023/09/26 05:30:14;;;;;;;;;;;;;;;;;;5059717;28;19916;-81
2023/09/26 05:32:40;;;;;;;;;;;;;;;;;;5058190;28;19912;-81
2023/09/26 05:35:06;;;;;;;;;;;;;;;;;;5065668;28;19921;-81
2023/09/26 05:37:31;;;;;;;;;;;;;;;;;;5056651;28;20432;-81
2023/09/26 05:39:56;;;;;;;;;;;;;;;;;;5063488;28;19928;-81
2023/09/26 05:42:22;;;;;;;;;;;;;;;;;;5058959;28;19962;-81
2023/09/26 05:44:47;;;;;;;;;;;;;;;;;;5059063;28;19916;-81
2023/09/26 05:47:12;;;;;;;;;;;;;;;;;;5062909;28;19912;-81
2023/09/26 05:49:38;;;;;;;;;;;;;;;;;;5057036;28;19994;-81
2023/09/26 05:52:03;;;;;;;;;;;;;;;;;;5062733;28;20055;-81
2023/09/26 05:54:29;;;;;;;;;;;;;;;;;;5065729;28;19954;-81
2023/09/26 05:56:54;;;;;;;;;;;;;;;;;;5055649;28;19913;-81
2023/09/26 05:59:19;;;;;;;;;;;;;;;;;;5065132;28;19916;-82
2023/09/26 06:01:44;;;;;;;;;;;;;;;;;;5061095;28;19917;-81
2023/09/26 06:04:10;;;;;;;;;;;;;;;;;;5057002;28;20013;-81
2023/09/26 06:06:35;;;;;;;;;;;;;;;;;;5052087;28;19935;-82
2023/09/26 06:09:01;;;;;;;;;;;;;;;;;;5053039;28;20284;-82
2023/09/26 06:11:26;;;;;;;;;;;;;;;;;;5032569;28;19917;-82
2023/09/26 06:13:54;;;;;;;;;;;;;;;;;;5054151;28;20039;-82
2023/09/26 06:16:20;;;;;;;;;;;;;;;;;;5052752;28;20352;-82
2023/09/26 06:18:45;;;;;;;;;;;;;;;;;;5036499;28;19917;-82
2023/09/26 06:21:13;;;;;;;;;;;;;;;;;;5052036;28;19947;-81
2023/09/26 06:23:38;;;;;;;;;;;;;;;;;;5053384;28;19924;-82
2023/09/26 06:26:03;;;;;;;;;;;;;;;;;;5051713;28;19913;-82
2023/09/26 06:28:29;;;;;;;;;;;;;;;;;;5064463;28;19931;-82
2023/09/26 06:30:54;;;;;;;;;;;;;;;;;;5063849;28;20380;-82
2023/09/26 06:33:20;;;;;;;;;;;;;;;;;;5066032;28;20423;-82
2023/09/26 06:35:45;;;;;;;;;;;;;;;;;;5062501;28;19912;-81
2023/09/26 06:38:11;;;;;;;;;;;;;;;;;;5067272;28;19924;-82
2023/09/26 06:40:37;;;;;;;;;;;;;;;;;;5068942;28;19967;-82
2023/09/26 06:43:02;;;;;;;;;;;;;;;;;;5063314;28;19959;-82
2023/09/26 06:45:27;;;;;;;;;;;;;;;;;;5060855;28;19920;-82
2023/09/26 06:47:53;;;;;;;;;;;;;;;;;;5061209;28;19916;-82
2023/09/26 06:50:18;;;;;;;;;;;;;;;;;;5053152;28;19924;-82
2023/09/26 06:52:43;;;;;;;;;;;;;;;;;;5063912;28;19986;-82
2023/09/26 06:55:10;;;;;;;;;;;;;;;;;;5070486;28;20294;-82
2023/09/26 06:57:35;;;;;;;;;;;;;;;;;;5068521;28;20269;-83
2023/09/26 07:00:04;;;;;;;;;;;;;;;;;;5068867;28;19920;-82
2023/09/26 07:02:30;;;;;;;;;;;;;;;;;;5061229;28;20007;-82
2023/09/26 07:04:56;;;;;;;;;;;;;;;;;;5068685;28;20463;-82
2023/09/26 07:07:22;;;;;;;;;;;;;;;;;;5052824;28;20319;-82
2023/09/26 07:09:48;;;;;;;;;;;;;;;;;;5056556;28;19952;-82
2023/09/26 07:12:13;;;;;;;;;;;;;;;;;;5071066;28;20383;-82
2023/09/26 07:14:38;;;;;;;;;;;;;;;;;;5070010;28;19912;-82
2023/09/26 07:17:04;;;;;;;;;;;;;;;;;;5071125;28;19955;-82
2023/09/26 07:19:29;;;;;;;;;;;;;;;;;;5069149;28;19919;-82
2023/09/26 07:21:55;;;;;;;;;;;;;;;;;;5056123;28;19916;-82
2023/09/26 07:24:20;;;;;;;;;;;;;;;;;;5044231;28;19913;-82
2023/09/26 07:26:46;;;;;;;;;;;;;;;;;;5064907;28;20043;-82
2023/09/26 07:29:11;;;;;;;;;;;;;;;;;;5053674;28;19917;-82
2023/09/26 07:31:36;;;;;;;;;;;;;;;;;;5055348;28;19923;-82
2023/09/26 07:34:01;;;;;;;;;;;;;;;;;;5053798;28;19920;-81
2023/09/26 07:36:27;;;;;;;;;;;;;;;;;;5057710;28;19962;-83
2023/09/26 07:38:52;;;;;;;;;;;;;;;;;;5054782;28;20288;-82
2023/09/26 07:41:18;;;;;;;;;;;;;;;;;;5057771;28;19929;-82
2023/09/26 07:43:43;;;;;;;;;;;;;;;;;;5053591;28;19920;-83
2023/09/26 07:46:09;;;;;;;;;;;;;;;;;;5057517;28;19917;-82
2023/09/26 07:48:34;;;;;;;;;;;;;;;;;;5055000;28;19938;-82
2023/09/26 07:51:00;;;;;;;;;;;;;;;;;;5059983;28;19920;-82
2023/09/26 07:53:25;;;;;;;;;;;;;;;;;;5055637;28;19935;-80
2023/09/26 07:55:50;;;;;;;;;;;;;;;;;;5041960;28;19920;-82
2023/09/26 07:58:16;;;;;;;;;;;;;;;;;;5062371;28;19912;-81
2023/09/26 08:00:41;;;;;;;;;;;;;;;;;;5062237;28;20019;-82
2023/09/26 08:03:06;;;;;;;;;;;;;;;;;;5055736;28;19962;-82
2023/09/26 08:05:32;;;;;;;;;;;;;;;;;;5051534;28;19920;-82
2023/09/26 08:07:58;;;;;;;;;;;;;;;;;;5047300;28;19913;-82
2023/09/26 08:10:23;;;;;;;;;;;;;;;;;;5048609;28;20457;-82
2023/09/26 08:12:51;;;;;;;;;;;;;;;;;;5051753;28;19917;-82
2023/09/26 08:15:17;;;;;;;;;;;;;;;;;;5050405;28;20433;-82
2023/09/26 08:17:42;;;;;;;;;;;;;;;;;;5050407;28;19924;-82
2023/09/26 08:20:08;;;;;;;;;;;;;;;;;;5051088;28;20402;-82
2023/09/26 08:22:34;;;;;;;;;;;;;;;;;;5052653;28;19913;-82
2023/09/26 08:24:59;;;;;;;;;;;;;;;;;;5053676;28;19916;-82
2023/09/26 08:27:24;;;;;;;;;;;;;;;;;;5065216;28;19947;-83
2023/09/26 08:29:50;;;;;;;;;;;;;;;;;;5054804;28;19939;-81
2023/09/26 08:32:15;;;;;;;;;;;;;;;;;;5072014;28;20006;-81
2023/09/26 08:34:41;;;;;;;;;;;;;;;;;;5076925;28;19978;-82
2023/09/26 08:37:06;;;;;;;;;;;;;;;;;;5050636;28;20328;-80
2023/09/26 08:39:31;;;;;;;;;;;;;;;;;;5076763;28;19916;-83
2023/09/26 08:41:57;;;;;;;;;;;;;;;;;;5071759;28;19936;-82
2023/09/26 08:44:22;;;;;;;;;;;;;;;;;;5077569;28;20307;-81
2023/09/26 08:46:48;;;;;;;;;;;;;;;;;;5077201;28;19951;-81
2023/09/26 08:49:13;;;;;;;;;;;;;;;;;;5071282;28;20247;-81
2023/09/26 08:51:38;;;;;;;;;;;;;;;;;;5071220;28;19916;-82
2023/09/26 08:54:04;;;;;;;;;;;;;;;;;;5071294;28;19923;-83
2023/09/26 08:56:29;;;;;;;;;;;;;;;;;;5054242;28;19970;-83
2023/09/26 08:58:55;;;;;;;;;;;;;;;;;;5084440;28;19917;-82
2023/09/26 09:01:20;;;;;;;;;;;;;;;;;;5088404;28;19939;-82
2023/09/26 09:03:46;;;;;;;;;;;;;;;;;;5066623;28;20015;-83
2023/09/26 09:06:11;;;;;;;;;;;;;;;;;;5088929;28;20387;-83
2023/09/26 09:08:37;;;;;;;;;;;;;;;;;;5075042;28;19917;-82
2023/09/26 09:11:02;;;;;;;;;;;;;;;;;;5075291;28;19919;-83
2023/09/26 09:13:27;;;;;;;;;;;;;;;;;;5075138;28;20330;-83
2023/09/26 09:15:53;;;;;;;;;;;;;;;;;;5074460;28;20406;-83
2023/09/26 09:18:18;;;;;;;;;;;;;;;;;;5077377;28;20234;-83
2023/09/26 09:20:43;;;;;;;;;;;;;;;;;;5053470;28;19916;-82
2023/09/26 09:23:09;;;;;;;;;;;;;;;;;;5078611;28;19916;-81
2023/09/26 09:25:34;;;;;;;;;;;;;;;;;;5078373;28;19920;-82
2023/09/26 09:28:00;;;;;;;;;;;;;;;;;;5065702;28;19974;-81
2023/09/26 09:30:25;;;;;;;;;;;;;;;;;;5072394;28;20550;-81
2023/09/26 09:32:50;;;;;;;;;;;;;;;;;;5074303;28;19996;-84
2023/09/26 09:35:16;;;;;;;;;;;;;;;;;;5078854;28;19919;-82
2023/09/26 09:37:41;;;;;;;;;;;;;;;;;;5084218;28;19920;-82
2023/09/26 09:40:07;;;;;;;;;;;;;;;;;;5065610;28;19916;-83
2023/09/26 09:42:33;;;;;;;;;;;;;;;;;;5068054;28;20280;-84
2023/09/26 09:44:58;;;;;;;;;;;;;;;;;;5063611;28;19956;-82
2023/09/26 09:47:24;;;;;;;;;;;;;;;;;;5049449;28;19923;-83
2023/09/26 09:49:49;;;;;;;;;;;;;;;;;;5079360;28;19920;-83
2023/09/26 09:52:15;;;;;;;;;;;;;;;;;;5078826;28;19920;-83
2023/09/26 09:54:40;;;;;;;;;;;;;;;;;;5047352;28;20418;-83
2023/09/26 09:57:06;;;;;;;;;;;;;;;;;;5084644;28;19959;-83
2023/09/26 09:59:31;;;;;;;;;;;;;;;;;;5079746;28;20367;-83
2023/09/26 10:01:56;;;;;;;;;;;;;;;;;;5085289;28;19920;-83
2023/09/26 10:04:21;;;;;;;;;;;;;;;;;;5078857;28;20350;-82
2023/09/26 10:06:47;;;;;;;;;;;;;;;;;;5065998;28;19916;-81
2023/09/26 10:09:12;;;;;;;;;;;;;;;;;;5058782;28;19920;-83
2023/09/26 10:11:38;;;;;;;;;;;;;;;;;;5073042;28;19916;-82
2023/09/26 10:14:05;;;;;;;;;;;;;;;;;;5059300;28;19919;-82
2023/09/26 10:16:31;;;;;;;;;;;;;;;;;;5075987;28;20010;-82
2023/09/26 10:18:59;;;;;;;;;;;;;;;;;;5077176;28;19920;-83
2023/09/26 10:21:25;;;;;;;;;;;;;;;;;;5076486;28;19928;-82
2023/09/26 10:23:50;;;;;;;;;;;;;;;;;;5076716;28;19913;-82
2023/09/26 10:26:16;;;;;;;;;;;;;;;;;;5075962;28;19916;-82
2023/09/26 10:28:41;;;;;;;;;;;;;;;;;;5077796;28;19929;-82
2023/09/26 10:31:06;;;;;;;;;;;;;;;;;;5086830;28;19920;-82
2023/09/26 10:33:32;;;;;;;;;;;;;;;;;;5076665;28;20345;-83
2023/09/26 10:35:57;;;;;;;;;;;;;;;;;;5076403;28;19924;-82
2023/09/26 10:38:23;;;;;;;;;;;;;;;;;;5078381;28;20280;-81
2023/09/26 10:40:48;;;;;;;;;;;;;;;;;;5076387;28;19921;-80
2023/09/26 10:43:14;;;;;;;;;;;;;;;;;;5079785;28;19920;-82
2023/09/26 10:45:39;;;;;;;;;;;;;;;;;;5066096;28;19916;-81
2023/09/26 10:48:04;;;;;;;;;;;;;;;;;;5080733;28;19924;-81
2023/09/26 10:50:30;;;;;;;;;;;;;;;;;;5070828;28;19920;-83
2023/09/26 10:52:55;;;;;;;;;;;;;;;;;;5081638;28;20007;-83
2023/09/26 10:55:20;;;;;;;;;;;;;;;;;;5066364;28;19928;-83
2023/09/26 10:57:46;;;;;;;;;;;;;;;;;;5081669;28;19919;-83
2023/09/26 11:00:11;;;;;;;;;;;;;;;;;;5077433;28;20058;-83
2023/09/26 11:02:36;;;;;;;;;;;;;;;;;;5078313;28;19916;-83
2023/09/26 11:05:02;;;;;;;;;;;;;;;;;;5078147;28;20379;-83
2023/09/26 11:07:27;;;;;;;;;;;;;;;;;;5064187;28;19967;-82
2023/09/26 11:09:52;;;;;;;;;;;;;;;;;;5057092;28;19916;-82
2023/09/26 11:12:18;;;;;;;;;;;;;;;;;;5070563;28;19939;-81
2023/09/26 11:14:43;;;;;;;;;;;;;;;;;;5073446;28;19916;-83
2023/09/26 11:17:08;;;;;;;;;;;;;;;;;;5073766;28;19982;-83
2023/09/26 11:19:34;;;;;;;;;;;;;;;;;;5073445;28;19963;-83
2023/09/26 11:22:00;;;;;;;;;;;;;;;;;;5073880;28;19939;-83
2023/09/26 11:24:27;;;;;;;;;;;;;;;;;;5072779;28;19916;-83
2023/09/26 11:26:53;;;;;;;;;;;;;;;;;;5072975;28;20015;-83
2023/09/26 11:29:18;;;;;;;;;;;;;;;;;;5073003;28;19916;-83
2023/09/26 11:31:43;;;;;;;;;;;;;;;;;;5073301;28;19912;-83
2023/09/26 11:34:09;;;;;;;;;;;;;;;;;;5073565;28;19916;-83
2023/09/26 11:36:34;;;;;;;;;;;;;;;;;;5085351;28;19912;-83
2023/09/26 11:39:00;;;;;;;;;;;;;;;;;;5073411;28;20450;-83
2023/09/26 11:41:25;;;;;;;;;;;;;;;;;;5073636;28;19916;-82
2023/09/26 11:43:52;;;;;;;;;;;;;;;;;;5072577;28;20391;-83
2023/09/26 11:46:17;;;;;;;;;;;;;;;;;;5072614;28;19952;-83
2023/09/26 11:48:43;;;;;;;;;;;;;;;;;;5072423;28;19994;-82
2023/09/26 11:51:08;;;;;;;;;;;;;;;;;;5072711;28;19927;-82
2023/09/26 11:53:33;;;;;;;;;;;;;;;;;;5076433;28;19996;-83
2023/09/26 11:55:59;;;;;;;;;;;;;;;;;;5071536;28;20386;-83
2023/09/26 11:58:24;;;;;;;;;;;;;;;;;;5072275;28;19919;-83
2023/09/26 12:00:50;;;;;;;;;;;;;;;;;;5044568;28;19921;-83
2023/09/26 12:03:15;;;;;;;;;;;;;;;;;;5080338;28;19912;-83
2023/09/26 12:05:41;;;;;;;;;;;;;;;;;;5062383;28;19920;-83
2023/09/26 12:08:06;;;;;;;;;;;;;;;;;;5075846;28;19913;-83
2023/09/26 12:10:33;;;;;;;;;;;;;;;;;;5072358;28;20011;-83
2023/09/26 12:12:58;;;;;;;;;;;;;;;;;;5072160;28;19951;-83
2023/09/26 12:15:23;;;;;;;;;;;;;;;;;;5072149;28;19964;-83
2023/09/26 12:17:49;;;;;;;;;;;;;;;;;;5069543;28;19912;-83
2023/09/26 12:20:17;;;;;;;;;;;;;;;;;;5083630;28;19967;-83
2023/09/26 12:22:43;;;;;;;;;;;;;;;;;;5071685;28;20295;-83
2023/09/26 12:25:08;;;;;;;;;;;;;;;;;;5072313;28;19917;-83
2023/09/26 12:27:33;;;;;;;;;;;;;;;;;;5073003;28;19960;-83
2023/09/26 12:29:59;;;;;;;;;;;;;;;;;;5076009;28;19920;-83
2023/09/26 12:32:24;;;;;;;;;;;;;;;;;;5075692;28;19935;-83
2023/09/26 12:34:50;;;;;;;;;;;;;;;;;;5064611;28;20386;-83
2023/09/26 12:37:15;;;;;;;;;;;;;;;;;;5076510;28;20010;-83
2023/09/26 12:39:40;;;;;;;;;;;;;;;;;;5075692;28;19955;-83
2023/09/26 12:42:06;;;;;;;;;;;;;;;;;;5076269;28;19919;-83
2023/09/26 12:44:36;;;;;;;;;;;;;;;;;;5076900;28;19932;-82
2023/09/26 12:47:01;;;;;;;;;;;;;;;;;;5068038;28;19916;-83
2023/09/26 12:49:26;;;;;;;;;;;;;;;;;;5076028;28;20402;-83
2023/09/26 12:51:52;;;;;;;;;;;;;;;;;;5067653;28;19923;-84
2023/09/26 12:54:17;;;;;;;;;;;;;;;;;;5063837;28;19917;-83
2023/09/26 12:56:42;;;;;;;;;;;;;;;;;;5075442;28;20007;-83
2023/09/26 12:59:08;;;;;;;;;;;;;;;;;;5075181;28;20448;-82
2023/09/26 13:01:34;;;;;;;;;;;;;;;;;;5076581;28;19916;-83
2023/09/26 13:03:59;;;;;;;;;;;;;;;;;;5062877;28;19965;-84
2023/09/26 13:06:24;;;;;;;;;;;;;;;;;;5076688;28;20375;-84
2023/09/26 13:08:50;;;;;;;;;;;;;;;;;;5072967;28;20015;-84
2023/09/26 13:11:15;;;;;;;;;;;;;;;;;;5070525;28;19913;-83
2023/09/26 13:13:41;;;;;;;;;;;;;;;;;;5075433;28;20061;-83
2023/09/26 13:16:06;;;;;;;;;;;;;;;;;;5074351;28;19913;-83
2023/09/26 13:18:31;;;;;;;;;;;;;;;;;;5074609;28;19927;-83
2023/09/26 13:20:57;;;;;;;;;;;;;;;;;;5071477;28;19917;-84
2023/09/26 13:23:22;;;;;;;;;;;;;;;;;;5074811;28;19917;-84
2023/09/26 13:25:47;;;;;;;;;;;;;;;;;;5074477;28;19919;-84
2023/09/26 13:28:13;;;;;;;;;;;;;;;;;;5074644;28;19935;-84
2023/09/26 13:30:38;;;;;;;;;;;;;;;;;;5074545;28;20002;-84
2023/09/26 13:33:03;;;;;;;;;;;;;;;;;;5075167;28;19916;-84
2023/09/26 13:35:30;;;;;;;;;;;;;;;;;;5065276;28;19912;-83
2023/09/26 13:37:55;;;;;;;;;;;;;;;;;;5080916;28;19923;-85
2023/09/26 13:40:21;;;;;;;;;;;;;;;;;;5069057;28;19920;-84
2023/09/26 13:42:46;;;;;;;;;;;;;;;;;;5064012;28;19973;-84
2023/09/26 13:45:12;;;;;;;;;;;;;;;;;;5077087;28;19913;-84
2023/09/26 13:47:38;;;;;;;;;;;;;;;;;;5081873;28;19923;-84
2023/09/26 13:50:03;;;;;;;;;;;;;;;;;;5078229;28;20376;-83
2023/09/26 13:52:30;;;;;;;;;;;;;;;;;;5061821;28;19923;-82
2023/09/26 13:54:55;;;;;;;;;;;;;;;;;;5080010;28;19916;-82
2023/09/26 13:57:21;;;;;;;;;;;;;;;;;;5078202;28;20345;-82
2023/09/26 13:59:47;;;;;;;;;;;;;;;;;;5063054;28;19913;-83
2023/09/26 14:02:12;;;;;;;;;;;;;;;;;;5082546;28;19939;-83
2023/09/26 14:04:37;;;;;;;;;;;;;;;;;;5074609;28;19919;-83
2023/09/26 14:07:04;;;;;;;;;;;;;;;;;;5065997;28;19916;-83
2023/09/26 14:09:29;;;;;;;;;;;;;;;;;;5078972;28;20429;-84
2023/09/26 14:11:54;;;;;;;;;;;;;;;;;;5078346;28;19920;-84
2023/09/26 14:14:20;;;;;;;;;;;;;;;;;;5071340;28;20298;-84
2023/09/26 14:16:46;;;;;;;;;;;;;;;;;;5071805;28;19921;-84
2023/09/26 14:19:11;;;;;;;;;;;;;;;;;;5047869;28;19916;-83
2023/09/26 14:21:37;;;;;;;;;;;;;;;;;;5082141;28;19974;-83
2023/09/26 14:24:02;;;;;;;;;;;;;;;;;;5076885;28;19912;-83
2023/09/26 14:26:28;;;;;;;;;;;;;;;;;;5069772;28;20386;-85
2023/09/26 14:28:59;;;;;;;;;;;;;;;;;;5068806;28;19955;-82
2023/09/26 14:31:25;;;;;;;;;;;;;;;;;;5065723;28;19916;-85
2023/09/26 14:33:50;;;;;;;;;;;;;;;;;;5077729;28;19919;-82
2023/09/26 14:36:16;;;;;;;;;;;;;;;;;;5070489;28;19916;-80
2023/09/26 14:38:41;;;;;;;;;;;;;;;;;;5070220;28;19917;-81
2023/09/26 14:41:06;;;;;;;;;;;;;;;;;;5049090;28;20393;-81
2023/09/26 14:43:35;;;;;;;;;;;;;;;;;;5077080;28;20007;-81
2023/09/26 14:46:00;;;;;;;;;;;;;;;;;;5085774;28;19916;-81
2023/09/26 14:48:25;;;;;;;;;;;;;;;;;;5053111;28;19913;-81
2023/09/26 14:50:54;;;;;;;;;;;;;;;;;;5083412;28;19924;-81
2023/09/26 14:53:20;;;;;;;;;;;;;;;;;;5078229;28;19965;-81
2023/09/26 14:55:45;;;;;;;;;;;;;;;;;;5074260;28;19920;-82
2023/09/26 14:58:10;;;;;;;;;;;;;;;;;;5073678;28;19918;-81
2023/09/26 15:00:36;;;;;;;;;;;;;;;;;;5067646;28;19952;-80
2023/09/26 15:03:01;;;;;;;;;;;;;;;;;;5054025;28;19920;-80
2023/09/26 15:05:26;;;;;;;;;;;;;;;;;;5075255;28;19925;-82
2023/09/26 15:07:52;;;;;;;;;;;;;;;;;;5074486;28;19935;-83
2023/09/26 15:10:17;;;;;;;;;;;;;;;;;;5074762;28;20294;-81
2023/09/26 15:12:42;;;;;;;;;;;;;;;;;;5071730;28;20007;-82
2023/09/26 15:15:08;;;;;;;;;;;;;;;;;;5070996;28;19921;-80
2023/09/26 15:17:33;;;;;;;;;;;;;;;;;;5073226;28;19919;-82
2023/09/26 15:19:59;;;;;;;;;;;;;;;;;;5073232;28;20410;-81
2023/09/26 15:22:24;;;;;;;;;;;;;;;;;;5060416;28;20034;-81
2023/09/26 15:24:49;;;;;;;;;;;;;;;;;;5073489;28;20392;-81
2023/09/26 15:27:15;;;;;;;;;;;;;;;;;;5062922;28;19925;-81
2023/09/26 15:29:40;;;;;;;;;;;;;;;;;;5078524;28;19928;-81
2023/09/26 15:32:05;;;;;;;;;;;;;;;;;;5073644;28;19969;-82
2023/09/26 15:34:31;;;;;;;;;;;;;;;;;;5075381;28;19959;-81
2023/09/26 15:36:56;;;;;;;;;;;;;;;;;;5045490;28;19913;-81
2023/09/26 15:39:21;;;;;;;;;;;;;;;;;;5075867;28;20295;-81
2023/09/26 15:41:47;;;;;;;;;;;;;;;;;;5062419;28;19916;-81
2023/09/26 15:44:12;;;;;;;;;;;;;;;;;;5090502;28;19916;-81
2023/09/26 15:46:38;;;;;;;;;;;;;;;;;;5071361;28;19934;-85
2023/09/26 15:49:04;;;;;;;;;;;;;;;;;;5076125;28;19951;-85
2023/09/26 15:51:29;;;;;;;;;;;;;;;;;;5077916;28;19916;-85
2023/09/26 15:53:55;;;;;;;;;;;;;;;;;;5056464;28;20302;-87
2023/09/26 15:56:20;;;;;;;;;;;;;;;;;;5085713;28;19919;-86
2023/09/26 15:58:45;;;;;;;;;;;;;;;;;;5063451;28;20421;-85
2023/09/26 16:01:11;;;;;;;;;;;;;;;;;;5073654;28;19975;-85
2023/09/26 16:03:36;;;;;;;;;;;;;;;;;;5073085;28;19923;-85
2023/09/26 16:06:01;;;;;;;;;;;;;;;;;;5063407;28;19912;-84
2023/09/26 16:08:27;;;;;;;;;;;;;;;;;;5078755;28;19948;-89
2023/09/26 16:10:52;;;;;;;;;;;;;;;;;;5075797;28;20379;-87
2023/09/26 16:13:18;;;;;;;;;;;;;;;;;;5058641;28;19920;-86
2023/09/26 16:15:46;;;;;;;;;;;;;;;;;;5056079;28;19912;-86
2023/09/26 16:18:12;;;;;;;;;;;;;;;;;;5045577;28;19952;-85
2023/09/26 16:20:37;;;;;;;;;;;;;;;;;;5059597;28;20336;-86
2023/09/26 16:23:03;;;;;;;;;;;;;;;;;;5073190;28;19962;-86
2023/09/26 16:25:28;;;;;;;;;;;;;;;;;;5041384;28;19920;-86
2023/09/26 16:27:53;;;;;;;;;;;;;;;;;;5052350;28;20314;-87
2023/09/26 16:30:19;;;;;;;;;;;;;;;;;;5051778;28;20012;-87
2023/09/26 16:32:44;;;;;;;;;;;;;;;;;;5052749;28;19924;-85
2023/09/26 16:35:10;;;;;;;;;;;;;;;;;;5036188;28;19920;-86